createdAt,value
2023-01-05T00:01:35.683Z,100222.69
2023-01-05T00:04:04.090Z,100223.63
2023-01-05T00:06:31.929Z,100231.59
2023-01-05T00:09:00.004Z,100229.00
2023-01-05T00:11:47.263Z,100237.91
2023-01-05T00:14:33.859Z,100222.91
2023-01-05T00:17:19.113Z,100220.31
2023-01-05T00:20:04.590Z,100222.97
2023-01-05T00:22:34.662Z,100240.66
2023-01-05T00:25:11.642Z,100240.66
2023-01-05T00:27:42.978Z,100229.19
2023-01-05T00:30:12.051Z,100246.88
2023-01-05T00:32:40.033Z,100245.09
2023-01-05T00:35:08.315Z,100248.66
2023-01-05T00:37:38.080Z,100255.75
2023-01-05T00:40:06.977Z,100252.19
2023-01-05T00:42:34.960Z,100240.72
2023-01-05T00:45:05.081Z,100249.56
2023-01-05T00:47:32.714Z,100236.34
2023-01-05T00:50:00.264Z,100243.41
2023-01-05T00:52:27.794Z,100244.28
2023-01-05T00:54:55.585Z,100237.25
2023-01-05T00:57:23.532Z,100239.91
2023-01-05T00:59:53.368Z,100242.56
2023-01-05T01:02:22.568Z,100234.63
2023-01-05T01:04:50.411Z,100248.75
2023-01-05T01:07:17.983Z,100254.94
2023-01-05T01:09:45.574Z,100244.34
2023-01-05T01:12:13.255Z,100249.66
2023-01-05T01:14:40.902Z,100247.91
2023-01-05T01:17:08.711Z,100247.91
2023-01-05T01:19:39.188Z,100247.03
2023-01-05T01:22:06.759Z,100246.13
2023-01-05T01:24:34.478Z,100250.53
2023-01-05T01:27:02.058Z,100248.81
2023-01-05T01:29:29.679Z,100237.31
2023-01-05T01:31:57.580Z,100247.03
2023-01-05T01:34:25.371Z,100247.91
2023-01-05T01:36:57.426Z,100247.03
2023-01-05T01:39:29.742Z,100255.84
2023-01-05T01:42:02.886Z,100260.25
2023-01-05T01:44:57.303Z,100251.44
2023-01-05T01:47:36.215Z,100254.09
2023-01-05T01:50:07.909Z,100246.16
2023-01-05T01:52:38.091Z,100254.97
2023-01-05T01:55:07.537Z,100263.81
2023-01-05T01:57:36.341Z,100276.16
2023-01-05T02:00:07.791Z,100262.91
2023-01-05T02:02:46.035Z,100265.56
2023-01-05T02:05:17.770Z,100252.34
2023-01-05T02:07:48.557Z,100264.69
2023-01-05T02:10:19.575Z,100256.75
2023-01-05T02:13:03.971Z,100260.28
2023-01-05T02:15:44.599Z,100266.47
2023-01-05T02:18:30.992Z,100266.47
2023-01-05T02:21:17.134Z,100262.06
2023-01-05T02:24:19.813Z,100272.66
2023-01-05T02:27:14.111Z,100272.66
2023-01-05T02:30:25.123Z,100259.41
2023-01-05T02:32:58.561Z,100259.41
2023-01-05T02:35:34.524Z,100258.53
2023-01-05T02:38:11.621Z,100244.41
2023-01-05T02:40:45.057Z,100247.06
2023-01-05T02:43:15.528Z,100243.53
2023-01-05T02:45:45.326Z,100251.47
2023-01-05T02:48:14.266Z,100251.47
2023-01-05T02:50:47.086Z,100250.56
2023-01-05T02:53:19.640Z,100247.94
2023-01-05T02:55:51.225Z,100256.75
2023-01-05T02:58:27.477Z,100250.56
2023-01-05T03:00:58.878Z,100260.28
2023-01-05T03:03:34.417Z,100254.09
2023-01-05T03:06:07.356Z,100251.44
2023-01-05T03:08:40.139Z,100255.00
2023-01-05T03:11:28.760Z,100241.75
2023-01-05T03:14:02.411Z,100248.84
2023-01-05T03:16:34.638Z,100256.78
2023-01-05T03:19:25.861Z,100250.56
2023-01-05T03:22:14.886Z,100270.00
2023-01-05T03:25:03.226Z,100253.25
2023-01-05T03:27:51.226Z,100249.69
2023-01-05T03:30:45.032Z,100259.38
2023-01-05T03:33:38.151Z,100249.72
2023-01-05T03:36:09.058Z,100262.94
2023-01-05T03:38:43.635Z,100266.47
2023-01-05T03:41:14.998Z,100263.81
2023-01-05T03:43:43.852Z,100262.03
2023-01-05T03:46:14.644Z,100277.91
2023-01-05T03:48:44.165Z,100263.81
2023-01-05T03:51:15.625Z,100265.56
2023-01-05T03:53:43.697Z,100269.09
2023-01-05T03:56:11.260Z,100261.13
2023-01-05T03:58:39.358Z,100263.78
2023-01-05T04:01:07.582Z,100267.34
2023-01-05T04:03:35.718Z,100264.69
2023-01-05T04:06:06.821Z,100267.31
2023-01-05T04:08:37.165Z,100269.06
2023-01-05T04:11:13.411Z,100262.03
2023-01-05T04:13:42.120Z,100268.22
2023-01-05T04:16:09.825Z,100277.06
2023-01-05T04:18:39.382Z,100281.44
2023-01-05T04:21:07.808Z,100282.34
2023-01-05T04:23:37.057Z,100279.69
2023-01-05T04:26:06.177Z,100283.22
2023-01-05T04:28:34.638Z,100285.84
2023-01-05T04:31:03.318Z,100290.28
2023-01-05T04:33:32.869Z,100277.03
2023-01-05T04:36:01.577Z,100277.03
2023-01-05T04:38:32.047Z,100285.88
2023-01-05T04:41:01.550Z,100276.16
2023-01-05T04:43:29.364Z,100282.34
2023-01-05T04:45:59.865Z,100278.81
2023-01-05T04:48:27.636Z,100281.47
2023-01-05T04:50:56.485Z,100270.88
2023-01-05T04:53:32.412Z,100274.38
2023-01-05T04:56:01.543Z,100283.22
2023-01-05T04:58:34.051Z,100285.84
2023-01-05T05:01:02.422Z,100298.22
2023-01-05T05:03:33.312Z,100303.50
2023-01-05T05:06:02.137Z,100312.31
2023-01-05T05:08:30.600Z,100314.09
2023-01-05T05:11:01.735Z,100295.56
2023-01-05T05:13:31.811Z,100295.56
2023-01-05T05:16:01.458Z,100301.72
2023-01-05T05:18:31.036Z,100307.91
2023-01-05T05:20:59.105Z,100312.31
2023-01-05T05:23:31.670Z,100310.56
2023-01-05T05:26:01.644Z,100311.44
2023-01-05T05:28:29.853Z,100310.56
2023-01-05T05:30:57.901Z,100320.25
2023-01-05T05:33:26.373Z,100322.06
2023-01-05T05:35:54.148Z,100313.22
2023-01-05T05:38:21.685Z,100324.72
2023-01-05T05:40:49.715Z,100322.94
2023-01-05T05:43:18.759Z,100325.59
2023-01-05T05:45:50.345Z,100330.00
2023-01-05T05:48:21.307Z,100325.59
2023-01-05T05:50:48.886Z,100338.81
2023-01-05T05:53:16.524Z,100335.28
2023-01-05T05:55:44.034Z,100336.16
2023-01-05T05:58:11.610Z,100343.22
2023-01-05T06:00:40.767Z,100346.75
2023-01-05T06:03:08.435Z,100358.22
2023-01-05T06:05:36.219Z,100349.41
2023-01-05T06:08:03.912Z,100350.28
2023-01-05T06:10:31.499Z,100354.69
2023-01-05T06:12:59.048Z,100357.34
2023-01-05T06:15:26.611Z,100355.56
2023-01-05T06:17:55.513Z,100354.69
2023-01-05T06:20:23.163Z,100358.22
2023-01-05T06:22:50.712Z,100359.09
2023-01-05T06:25:18.389Z,100369.69
2023-01-05T06:27:45.848Z,100364.41
2023-01-05T06:30:14.472Z,100365.28
2023-01-05T06:32:42.132Z,100370.56
2023-01-05T06:35:11.592Z,100371.44
2023-01-05T06:37:39.228Z,100379.41
2023-01-05T06:40:09.711Z,100378.50
2023-01-05T06:42:37.212Z,100383.81
2023-01-05T06:45:05.456Z,100395.28
2023-01-05T06:47:33.263Z,100392.63
2023-01-05T06:50:01.140Z,100393.50
2023-01-05T06:52:30.532Z,100406.75
2023-01-05T06:54:58.183Z,100403.16
2023-01-05T06:57:25.808Z,100400.53
2023-01-05T06:59:53.485Z,100423.44
2023-01-05T07:02:21.043Z,100415.53
2023-01-05T07:04:48.629Z,100419.03
2023-01-05T07:07:17.046Z,100424.31
2023-01-05T07:09:49.220Z,100418.16
2023-01-05T07:12:16.794Z,100420.78
2023-01-05T07:14:44.663Z,100426.97
2023-01-05T07:17:13.415Z,100423.44
2023-01-05T07:19:41.274Z,100440.19
2023-01-05T07:22:09.338Z,100431.38
2023-01-05T07:24:36.920Z,100434.00
2023-01-05T07:27:09.659Z,100441.09
2023-01-05T07:29:37.626Z,100429.59
2023-01-05T07:32:05.935Z,100446.38
2023-01-05T07:34:33.502Z,100452.56
2023-01-05T07:37:01.061Z,100450.78
2023-01-05T07:39:28.612Z,100452.56
2023-01-05T07:41:56.131Z,100458.72
2023-01-05T07:44:27.548Z,100470.19
2023-01-05T07:46:55.054Z,100475.47
2023-01-05T07:49:22.603Z,100467.53
2023-01-05T07:51:50.178Z,100477.25
2023-01-05T07:54:17.697Z,100466.66
2023-01-05T07:56:45.299Z,100477.25
2023-01-05T07:59:12.866Z,100475.47
2023-01-05T08:01:41.812Z,100471.97
2023-01-05T08:04:09.977Z,100489.59
2023-01-05T08:06:37.556Z,100478.16
2023-01-05T08:09:26.130Z,100497.53
2023-01-05T08:11:53.605Z,100501.06
2023-01-05T08:14:21.254Z,100512.53
2023-01-05T08:16:50.620Z,100502.84
2023-01-05T08:19:19.616Z,100523.13
2023-01-05T08:21:47.174Z,100519.56
2023-01-05T08:24:14.717Z,100521.34
2023-01-05T08:26:42.303Z,100517.84
2023-01-05T08:29:09.841Z,100516.94
2023-01-05T08:31:40.469Z,100522.22
2023-01-05T08:34:09.442Z,100528.41
2023-01-05T08:36:36.930Z,100538.09
2023-01-05T08:39:05.065Z,100539.88
2023-01-05T08:41:35.737Z,100554.84
2023-01-05T08:44:07.657Z,100556.66
2023-01-05T08:46:36.566Z,100558.41
2023-01-05T08:49:05.755Z,100569.91
2023-01-05T08:51:35.023Z,100567.25
2023-01-05T08:54:02.572Z,100569.91
2023-01-05T08:56:34.808Z,100581.44
2023-01-05T08:59:06.206Z,100581.41
2023-01-05T09:01:33.957Z,100589.38
2023-01-05T09:04:01.595Z,100595.56
2023-01-05T09:06:29.804Z,100592.06
2023-01-05T09:08:58.777Z,100599.09
2023-01-05T09:11:27.309Z,100610.63
2023-01-05T09:13:56.870Z,100607.97
2023-01-05T09:19:15.016Z,100620.34
2023-01-05T09:21:42.569Z,100607.13
2023-01-05T09:24:13.277Z,100636.25
2023-01-05T09:26:41.686Z,100650.38
2023-01-05T09:29:09.846Z,100647.75
2023-01-05T09:31:37.406Z,100638.03
2023-01-05T09:34:05.061Z,100642.47
2023-01-05T09:36:33.206Z,100654.81
2023-01-05T09:39:00.841Z,100657.47
2023-01-05T09:41:34.984Z,100658.34
2023-01-05T09:44:07.830Z,100675.13
2023-01-05T09:46:39.450Z,100665.44
2023-01-05T09:49:12.882Z,100678.66
2023-01-05T09:51:40.887Z,100678.66
2023-01-05T09:54:16.205Z,100688.38
2023-01-05T09:59:37.399Z,100683.97
2023-01-05T10:02:15.714Z,100683.06
2023-01-05T10:04:43.733Z,100703.38
2023-01-05T10:07:21.040Z,100692.78
2023-01-05T10:09:49.453Z,100701.59
2023-01-05T10:12:42.405Z,100713.03
2023-01-05T10:15:13.682Z,100707.72
2023-01-05T10:17:43.723Z,100708.56
2023-01-05T10:20:16.362Z,100708.56
2023-01-05T10:22:53.066Z,100714.69
2023-01-05T10:25:24.584Z,100719.09
2023-01-05T10:28:01.143Z,100718.19
2023-01-05T10:30:46.567Z,100727.88
2023-01-05T10:33:40.205Z,100719.06
2023-01-05T10:36:28.161Z,100728.75
2023-01-05T10:39:13.374Z,100732.28
2023-01-05T10:41:51.413Z,100735.84
2023-01-05T10:44:52.225Z,100749.97
2023-01-05T10:47:22.898Z,100753.50
2023-01-05T10:49:51.080Z,100747.31
2023-01-05T10:52:20.341Z,100756.13
2023-01-05T10:54:51.088Z,100758.66
2023-01-05T10:57:36.639Z,100761.25
2023-01-05T11:00:10.480Z,100768.25
2023-01-05T11:02:40.712Z,100758.47
2023-01-05T11:05:22.613Z,100769.88
2023-01-05T11:07:52.614Z,100784.81
2023-01-05T11:10:23.944Z,100781.25
2023-01-05T11:12:55.520Z,100791.84
2023-01-05T11:15:25.157Z,100784.75
2023-01-05T11:17:52.905Z,100793.56
2023-01-05T11:20:20.925Z,100802.38
2023-01-05T11:22:49.782Z,100807.66
2023-01-05T11:25:30.872Z,100815.59
2023-01-05T11:28:07.539Z,100805.84
2023-01-05T11:30:37.573Z,100812.00
2023-01-05T11:33:17.308Z,100808.47
2023-01-05T11:35:46.696Z,100819.03
2023-01-05T11:38:24.142Z,100824.28
2023-01-05T11:40:57.242Z,100831.28
2023-01-05T11:43:27.006Z,100838.28
2023-01-05T11:46:00.450Z,100825.91
2023-01-05T11:48:32.089Z,100829.47
2023-01-05T11:50:59.914Z,100832.28
2023-01-05T11:53:37.672Z,100838.50
2023-01-05T11:56:15.196Z,100826.31
2023-01-05T11:58:44.459Z,100837.09
2023-01-05T12:01:52.697Z,100837.19
2023-01-05T12:04:31.877Z,100847.91
2023-01-05T12:07:26.278Z,100848.78
2023-01-05T12:10:03.356Z,100855.00
2023-01-05T12:12:45.159Z,100855.00
2023-01-05T12:15:43.414Z,100855.03
2023-01-05T12:18:27.420Z,100868.28
2023-01-05T12:21:03.512Z,100867.38
2023-01-05T12:23:49.319Z,100878.94
2023-01-05T12:26:24.264Z,100874.50
2023-01-05T12:30:33.004Z,100874.47
2023-01-05T12:35:25.926Z,100887.63
2023-01-05T12:38:10.600Z,100879.69
2023-01-05T12:40:54.721Z,100888.56
2023-01-05T12:43:40.095Z,100889.44
2023-01-05T12:46:18.673Z,100899.16
2023-01-05T12:48:50.477Z,100909.72
2023-01-05T12:51:25.510Z,100906.22
2023-01-05T12:53:59.209Z,100919.47
2023-01-05T12:56:32.031Z,100915.06
2023-01-05T12:59:10.655Z,100915.09
2023-01-05T13:01:45.297Z,100921.25
2023-01-05T13:04:26.838Z,100928.28
2023-01-05T13:07:00.668Z,100912.34
2023-01-05T13:09:32.268Z,100922.94
2023-01-05T13:12:05.247Z,100925.56
2023-01-05T13:14:35.960Z,100929.97
2023-01-05T13:17:08.547Z,100932.59
2023-01-05T13:19:42.696Z,100929.97
2023-01-05T13:22:20.019Z,100929.91
2023-01-05T13:24:52.960Z,100932.50
2023-01-05T13:27:20.484Z,100933.38
2023-01-05T13:29:53.116Z,100928.94
2023-01-05T13:32:36.857Z,100938.59
2023-01-05T13:35:19.248Z,100940.34
2023-01-05T13:38:07.673Z,100943.88
2023-01-05T13:40:49.732Z,100950.03
2023-01-05T13:43:41.817Z,100955.25
2023-01-05T13:46:26.676Z,100956.97
2023-01-05T13:49:08.022Z,100966.66
2023-01-05T13:51:52.043Z,100965.78
2023-01-05T13:54:37.796Z,100963.09
2023-01-05T13:57:16.218Z,100970.13
2023-01-05T13:59:55.031Z,100981.53
2023-01-05T14:02:30.077Z,100979.75
2023-01-05T14:04:58.701Z,100986.81
2023-01-05T14:07:28.182Z,101002.63
2023-01-05T14:09:58.675Z,101000.78
2023-01-05T14:12:45.896Z,101004.28
2023-01-05T14:15:50.283Z,101014.81
2023-01-05T14:18:52.048Z,101013.88
2023-01-05T14:21:54.404Z,101032.31
2023-01-05T14:24:31.595Z,101037.59
2023-01-05T14:27:11.752Z,101040.25
2023-01-05T14:30:04.019Z,101042.88
2023-01-05T14:32:33.797Z,101045.47
2023-01-05T14:35:06.856Z,101047.22
2023-01-05T14:37:38.616Z,101052.47
2023-01-05T14:40:25.512Z,101048.88
2023-01-05T14:42:55.272Z,101049.66
2023-01-05T14:45:25.841Z,101060.22
2023-01-05T14:47:56.109Z,101066.34
2023-01-05T14:50:33.753Z,101072.44
2023-01-05T14:53:04.091Z,101071.50
2023-01-05T14:55:38.751Z,101081.13
2023-01-05T14:58:13.917Z,101089.88
2023-01-05T15:00:46.014Z,101100.38
2023-01-05T15:03:19.750Z,101095.03
2023-01-05T15:05:59.744Z,101102.91
2023-01-05T15:08:50.765Z,101114.25
2023-01-05T15:11:37.516Z,101111.53
2023-01-05T15:14:32.640Z,101112.28
2023-01-05T15:17:29.001Z,101124.56
2023-01-05T15:20:32.165Z,101130.66
2023-01-05T15:23:12.152Z,101127.06
2023-01-05T15:26:02.972Z,101124.34
2023-01-05T15:29:03.240Z,101122.53
2023-01-05T15:31:37.505Z,101139.19
2023-01-05T15:34:15.037Z,101122.41
2023-01-05T15:36:48.958Z,101136.44
2023-01-05T15:39:32.313Z,101141.63
2023-01-05T15:42:06.242Z,101149.50
2023-01-05T15:44:38.157Z,101141.50
2023-01-05T15:47:10.668Z,101138.84
2023-01-05T15:49:39.874Z,101154.63
2023-01-05T15:52:19.909Z,101158.13
2023-01-05T15:54:58.620Z,101169.50
2023-01-05T15:57:26.125Z,101167.66
2023-01-05T15:59:54.168Z,101174.69
2023-01-05T16:02:26.116Z,101171.13
2023-01-05T16:05:11.252Z,101167.50
2023-01-05T16:07:43.266Z,101177.09
2023-01-05T16:10:19.159Z,101181.44
2023-01-05T16:12:49.214Z,101182.28
2023-01-05T16:15:21.731Z,101189.25
2023-01-05T16:17:56.019Z,101203.34
2023-01-05T16:20:25.675Z,101197.13
2023-01-05T16:23:04.508Z,101206.75
2023-01-05T16:25:40.517Z,101200.59
2023-01-05T16:28:17.384Z,101197.88
2023-01-05T16:30:46.631Z,101199.56
2023-01-05T16:33:34.556Z,101207.47
2023-01-05T16:36:12.095Z,101206.50
2023-01-05T16:38:39.889Z,101209.97
2023-01-05T16:41:11.365Z,101202.00
2023-01-05T16:43:47.963Z,101221.25
2023-01-05T16:46:40.654Z,101215.94
2023-01-05T16:49:27.714Z,101215.03
2023-01-05T16:51:56.707Z,101227.28
2023-01-05T16:54:34.920Z,101235.22
2023-01-05T16:57:05.295Z,101240.44
2023-01-05T16:59:41.227Z,101229.91
2023-01-05T17:02:40.055Z,101229.91
2023-01-05T17:05:10.252Z,101239.56
2023-01-05T17:07:39.936Z,101242.19
2023-01-05T17:10:09.416Z,101244.78
2023-01-05T17:12:38.749Z,101242.16
2023-01-05T17:15:07.883Z,101241.28
2023-01-05T17:17:35.379Z,101239.53
2023-01-05T17:20:03.145Z,101244.78
2023-01-05T17:22:32.016Z,101250.06
2023-01-05T17:27:27.965Z,101264.13
2023-01-05T17:32:24.454Z,101261.47
2023-01-05T17:34:51.953Z,101261.41
2023-01-05T17:37:19.517Z,101254.34
2023-01-05T17:39:48.336Z,101264.00
2023-01-05T17:42:33.393Z,101264.81
2023-01-05T17:45:00.891Z,101269.13
2023-01-05T17:47:28.391Z,101282.19
2023-01-05T17:49:55.944Z,101280.38
2023-01-05T17:52:23.551Z,101282.97
2023-01-05T17:54:52.435Z,101289.97
2023-01-05T17:57:20.916Z,101283.69
2023-01-05T17:59:49.264Z,101295.06
2023-01-05T18:02:16.877Z,101292.34
2023-01-05T18:04:44.407Z,101285.25
2023-01-05T18:07:11.972Z,101293.13
2023-01-05T18:09:39.559Z,101305.38
2023-01-05T18:12:08.766Z,101301.78
2023-01-05T18:17:08.752Z,101297.25
2023-01-05T18:19:36.739Z,101295.47
2023-01-05T18:22:04.610Z,101295.34
2023-01-05T18:24:32.152Z,101295.25
2023-01-05T18:26:59.661Z,101299.59
2023-01-05T18:29:28.493Z,101316.25
2023-01-05T18:31:56.018Z,101309.97
2023-01-05T18:34:23.655Z,101305.53
2023-01-05T18:36:58.368Z,101309.84
2023-01-05T18:39:33.795Z,101300.97
2023-01-05T18:42:01.715Z,101304.41
2023-01-05T18:44:30.633Z,101299.06
2023-01-05T18:46:58.300Z,101300.75
2023-01-05T18:49:27.246Z,101298.88
2023-01-05T18:51:54.829Z,101288.28
2023-01-05T18:54:22.648Z,101282.00
2023-01-05T18:56:50.250Z,101278.44
2023-01-05T18:59:18.257Z,101287.16
2023-01-05T19:01:47.380Z,101286.19
2023-01-05T19:04:16.951Z,101292.22
2023-01-05T19:06:44.891Z,101305.34
2023-01-05T19:09:14.211Z,101300.00
2023-01-05T19:11:45.626Z,101299.06
2023-01-05T19:14:13.730Z,101303.34
2023-01-05T19:16:41.374Z,101305.88
2023-01-05T19:19:15.021Z,101315.47
2023-01-05T19:21:45.091Z,101307.50
2023-01-05T19:24:16.807Z,101297.88
2023-01-05T19:26:44.923Z,101304.06
2023-01-05T19:29:13.415Z,101313.72
2023-01-05T19:31:41.749Z,101317.22
2023-01-05T19:34:12.647Z,101320.75
2023-01-05T19:36:40.360Z,101326.06
2023-01-05T19:39:12.360Z,101319.97
2023-01-05T19:41:41.483Z,101324.38
2023-01-05T19:44:13.023Z,101324.41
2023-01-05T19:46:41.031Z,101335.81
2023-01-05T19:49:16.254Z,101322.66
2023-01-05T19:51:44.443Z,101334.16
2023-01-05T19:54:13.755Z,101325.38
2023-01-05T19:56:42.922Z,101324.56
2023-01-05T19:59:16.012Z,101328.94
2023-01-05T20:01:43.892Z,101326.41
2023-01-05T20:04:12.897Z,101337.09
2023-01-05T20:06:42.906Z,101339.88
2023-01-05T20:09:13.013Z,101330.28
2023-01-05T20:11:43.980Z,101329.44
2023-01-05T20:14:14.165Z,101327.84
2023-01-05T20:16:43.310Z,101337.63
2023-01-05T20:19:12.656Z,101337.72
2023-01-05T20:21:40.330Z,101335.19
2023-01-05T20:24:14.695Z,101337.09
2023-01-05T20:26:42.991Z,101339.81
2023-01-05T20:29:10.927Z,101341.53
2023-01-05T20:31:41.324Z,101338.22
2023-01-05T20:34:11.910Z,101334.69
2023-01-05T20:36:40.997Z,101338.25
2023-01-05T20:39:10.108Z,101340.03
2023-01-05T20:41:40.230Z,101341.81
2023-01-05T20:44:08.926Z,101339.19
2023-01-05T20:46:39.226Z,101345.34
2023-01-05T20:49:06.966Z,101354.13
2023-01-05T20:51:35.482Z,101356.81
2023-01-05T20:54:08.918Z,101364.75
2023-01-05T20:56:38.697Z,101354.25
2023-01-05T20:59:08.082Z,101350.78
2023-01-05T21:01:36.229Z,101357.81
2023-01-05T21:04:03.970Z,101361.38
2023-01-05T21:06:31.529Z,101363.16
2023-01-05T21:08:59.343Z,101354.41
2023-01-05T21:11:29.391Z,101361.44
2023-01-05T21:13:58.868Z,101357.97
2023-01-05T21:16:28.478Z,101365.00
2023-01-05T21:18:56.285Z,101365.00
2023-01-05T21:21:26.266Z,101357.13
2023-01-05T21:23:55.122Z,101358.06
2023-01-05T21:26:23.527Z,101355.38
2023-01-05T21:28:54.520Z,101358.06
2023-01-05T21:31:24.015Z,101354.50
2023-01-05T21:33:51.834Z,101349.22
2023-01-05T21:36:21.847Z,101349.22
2023-01-05T21:39:01.602Z,101354.56
2023-01-05T21:41:48.715Z,101348.41
2023-01-05T21:44:18.383Z,101338.72
2023-01-05T21:46:46.059Z,101341.38
2023-01-05T21:49:14.354Z,101349.31
2023-01-05T21:52:00.188Z,101351.13
2023-01-05T21:54:46.059Z,101342.28
2023-01-05T21:57:14.056Z,101352.00
2023-01-05T21:59:43.424Z,101348.53
2023-01-05T22:02:11.380Z,101344.13
2023-01-05T22:04:39.010Z,101348.56
2023-01-05T22:07:07.421Z,101345.06
2023-01-05T22:09:35.052Z,101348.59
2023-01-05T22:12:02.780Z,101348.63
2023-01-05T22:14:30.300Z,101347.78
2023-01-05T22:16:59.164Z,101339.88
2023-01-05T22:19:26.875Z,101346.03
2023-01-05T22:21:54.408Z,101351.31
2023-01-05T22:24:21.967Z,101350.47
2023-01-05T22:26:49.526Z,101349.59
2023-01-05T22:29:18.827Z,101342.59
2023-01-05T22:31:46.475Z,101346.13
2023-01-05T22:34:15.366Z,101355.00
2023-01-05T22:36:42.933Z,101339.19
2023-01-05T22:39:10.478Z,101333.91
2023-01-05T22:41:38.051Z,101330.44
2023-01-05T22:44:06.045Z,101337.47
2023-01-05T22:46:34.253Z,101333.97
2023-01-05T22:49:01.849Z,101334.84
2023-01-05T22:51:32.570Z,101337.47
2023-01-05T22:54:01.000Z,101337.47
2023-01-05T22:56:31.729Z,101341.06
2023-01-05T22:59:00.158Z,101336.63
2023-01-05T23:01:30.082Z,101337.56
2023-01-05T23:03:59.732Z,101342.84
2023-01-05T23:06:28.737Z,101336.72
2023-01-05T23:08:58.669Z,101332.28
2023-01-05T23:11:28.478Z,101340.19
2023-01-05T23:13:57.266Z,101341.88
2023-01-05T23:16:26.251Z,101338.34
2023-01-05T23:18:54.155Z,101333.91
2023-01-05T23:21:23.298Z,101333.91
2023-01-05T23:23:52.446Z,101334.78
2023-01-05T23:26:22.089Z,101327.72
2023-01-05T23:28:50.257Z,101324.19
2023-01-05T23:31:19.143Z,101323.28
2023-01-05T23:33:47.956Z,101324.19
2023-01-05T23:36:17.359Z,101332.16
2023-01-05T23:38:45.467Z,101323.31
2023-01-05T23:41:14.748Z,101316.28
2023-01-05T23:43:45.451Z,101313.59
2023-01-05T23:46:16.369Z,101310.94
2023-01-05T23:48:44.829Z,101302.97
2023-01-05T23:51:14.296Z,101307.38
2023-01-05T23:53:42.914Z,101302.00
2023-01-05T23:56:12.700Z,101294.94
2023-01-05T23:58:40.650Z,101301.06
